createdAt,value
2022-12-06T00:00:03.198Z,3.50
2022-12-06T00:02:32.477Z,3.40
2022-12-06T00:04:59.173Z,3.40
2022-12-06T00:07:25.946Z,3.40
2022-12-06T00:10:02.114Z,3.30
2022-12-06T00:12:47.874Z,3.30
2022-12-06T00:15:15.180Z,3.30
2022-12-06T00:17:43.273Z,3.30
2022-12-06T00:20:10.269Z,3.30
2022-12-06T00:25:32.949Z,3.30
2022-12-06T00:27:59.607Z,3.30
2022-12-06T00:30:26.220Z,3.30
2022-12-06T00:32:53.061Z,3.30
2022-12-06T00:38:16.530Z,3.30
2022-12-06T00:41:39.626Z,3.40
2022-12-06T00:52:04.650Z,3.40
2022-12-06T00:54:34.458Z,3.40
2022-12-06T00:57:01.154Z,3.40
2022-12-06T00:59:30.192Z,3.40
2022-12-06T01:01:56.849Z,3.40
2022-12-06T01:04:23.588Z,3.40
2022-12-06T01:06:50.210Z,3.50
2022-12-06T01:09:16.871Z,3.40
2022-12-06T01:11:44.692Z,3.40
2022-12-06T01:14:11.294Z,3.40
2022-12-06T01:16:38.722Z,3.40
2022-12-06T01:19:06.311Z,3.40
2022-12-06T01:21:33.124Z,3.40
2022-12-06T01:23:59.829Z,3.40
2022-12-06T01:26:27.773Z,3.40
2022-12-06T01:28:54.711Z,3.30
2022-12-06T01:31:21.478Z,3.30
2022-12-06T01:33:48.250Z,3.20
2022-12-06T01:36:19.158Z,3.30
2022-12-06T01:38:49.161Z,3.30
2022-12-06T01:41:15.809Z,3.30
2022-12-06T01:43:43.296Z,3.40
2022-12-06T01:46:19.190Z,3.30
2022-12-06T01:48:47.633Z,3.30
2022-12-06T01:51:15.734Z,3.40
2022-12-06T01:53:44.177Z,3.40
2022-12-06T01:56:10.921Z,3.30
2022-12-06T01:58:40.430Z,3.30
2022-12-06T02:01:07.915Z,3.30
2022-12-06T02:03:35.082Z,3.30
2022-12-06T02:06:03.351Z,3.40
2022-12-06T02:08:30.276Z,3.40
2022-12-06T02:10:56.914Z,3.40
2022-12-06T02:13:23.541Z,3.40
2022-12-06T02:15:54.941Z,3.40
2022-12-06T02:18:29.767Z,3.50
2022-12-06T02:21:22.727Z,3.40
2022-12-06T02:23:49.350Z,3.40
2022-12-06T02:26:25.970Z,3.40
2022-12-06T02:28:52.580Z,3.50
2022-12-06T02:31:27.176Z,3.50
2022-12-06T02:33:58.718Z,3.50
2022-12-06T02:36:25.372Z,3.50
2022-12-06T02:38:53.779Z,3.50
2022-12-06T02:41:40.671Z,3.50
2022-12-06T02:44:09.416Z,3.50
2022-12-06T02:46:37.081Z,3.40
2022-12-06T02:49:05.165Z,3.40
2022-12-06T02:51:32.690Z,3.40
2022-12-06T02:54:01.178Z,3.40
2022-12-06T02:56:28.402Z,3.40
2022-12-06T02:58:56.125Z,3.30
2022-12-06T03:01:24.930Z,3.30
2022-12-06T03:04:10.499Z,3.20
2022-12-06T03:06:49.431Z,3.20
2022-12-06T03:09:25.255Z,3.10
2022-12-06T03:11:57.364Z,3.10
2022-12-06T03:14:25.241Z,3.10
2022-12-06T03:17:10.899Z,3.20
2022-12-06T03:19:38.726Z,3.20
2022-12-06T03:22:15.870Z,3.20
2022-12-06T03:24:43.116Z,3.20
2022-12-06T03:27:11.405Z,3.20
2022-12-06T03:29:40.407Z,3.10
2022-12-06T03:32:07.993Z,3.20
2022-12-06T03:34:45.585Z,3.20
2022-12-06T03:37:14.549Z,3.10
2022-12-06T03:39:59.738Z,3.10
2022-12-06T03:42:27.217Z,3.20
2022-12-06T03:44:53.932Z,3.10
2022-12-06T03:47:39.328Z,3.20
2022-12-06T03:50:09.821Z,3.10
2022-12-06T03:52:36.489Z,3.10
2022-12-06T03:55:03.305Z,3.10
2022-12-06T03:57:29.958Z,3.00
2022-12-06T03:59:56.682Z,3.00
2022-12-06T04:02:23.422Z,2.90
2022-12-06T04:04:50.186Z,3.00
2022-12-06T04:07:24.035Z,3.00
2022-12-06T04:09:56.245Z,3.00
2022-12-06T04:12:42.566Z,3.00
2022-12-06T04:15:09.737Z,3.00
2022-12-06T04:17:58.631Z,3.00
2022-12-06T04:20:26.545Z,3.00
2022-12-06T04:23:19.960Z,3.00
2022-12-06T04:25:46.902Z,3.10
2022-12-06T04:28:32.470Z,3.00
2022-12-06T04:31:22.017Z,3.00
2022-12-06T04:34:07.828Z,3.00
2022-12-06T04:36:59.058Z,2.90
2022-12-06T04:39:25.846Z,2.90
2022-12-06T04:42:11.275Z,2.90
2022-12-06T04:44:38.210Z,2.90
2022-12-06T04:47:05.286Z,3.00
2022-12-06T04:49:32.163Z,3.00
2022-12-06T04:51:58.773Z,3.00
2022-12-06T04:54:25.465Z,3.00
2022-12-06T04:56:53.048Z,3.00
2022-12-06T04:59:20.142Z,3.00
2022-12-06T05:01:46.789Z,3.00
2022-12-06T05:04:13.552Z,3.00
2022-12-06T05:06:40.260Z,3.00
2022-12-06T05:09:06.951Z,3.00
2022-12-06T05:11:33.651Z,2.90
2022-12-06T05:14:00.699Z,3.00
2022-12-06T05:16:27.774Z,3.00
2022-12-06T05:18:54.633Z,3.00
2022-12-06T05:21:22.667Z,3.10
2022-12-06T05:23:49.823Z,3.10
2022-12-06T05:26:17.775Z,3.10
2022-12-06T05:28:44.902Z,3.10
2022-12-06T05:31:11.934Z,3.10
2022-12-06T05:33:38.640Z,3.10
2022-12-06T05:36:09.547Z,3.10
2022-12-06T05:38:36.325Z,3.00
2022-12-06T05:41:03.935Z,3.00
2022-12-06T05:43:30.895Z,3.00
2022-12-06T05:45:58.015Z,2.90
2022-12-06T05:48:25.036Z,3.00
2022-12-06T05:50:52.036Z,2.90
2022-12-06T05:53:18.630Z,2.90
2022-12-06T05:55:45.527Z,2.90
2022-12-06T05:58:12.207Z,2.90
2022-12-06T06:00:39.017Z,2.90
2022-12-06T06:03:06.215Z,2.90
2022-12-06T06:05:33.058Z,2.90
2022-12-06T06:07:59.769Z,2.90
2022-12-06T06:10:26.506Z,2.90
2022-12-06T06:12:53.139Z,2.80
2022-12-06T06:15:19.761Z,2.70
2022-12-06T06:17:54.087Z,2.70
2022-12-06T06:20:20.700Z,2.70
2022-12-06T06:22:47.334Z,2.70
2022-12-06T06:25:14.002Z,2.70
2022-12-06T06:27:40.633Z,2.70
2022-12-06T06:30:08.718Z,2.60
2022-12-06T06:32:35.744Z,2.60
2022-12-06T06:35:02.936Z,2.60
2022-12-06T06:37:29.594Z,2.60
2022-12-06T06:39:56.456Z,2.70
2022-12-06T06:42:23.132Z,2.80
2022-12-06T06:44:49.765Z,2.80
2022-12-06T06:47:16.371Z,2.80
2022-12-06T06:49:43.013Z,2.80
2022-12-06T06:52:09.675Z,2.90
2022-12-06T06:54:36.308Z,2.90
2022-12-06T06:57:03.141Z,2.90
2022-12-06T06:59:29.827Z,2.90
2022-12-06T07:01:56.561Z,2.90
2022-12-06T07:04:38.912Z,2.80
2022-12-06T07:07:05.903Z,2.80
2022-12-06T07:09:33.034Z,2.70
2022-12-06T07:11:59.619Z,2.70
2022-12-06T07:14:26.457Z,2.60
2022-12-06T07:16:53.418Z,2.70
2022-12-06T07:19:20.090Z,2.70
2022-12-06T07:21:46.716Z,2.60
2022-12-06T07:24:17.723Z,2.70
2022-12-06T07:26:44.353Z,2.70
2022-12-06T07:29:10.982Z,2.70
2022-12-06T07:31:37.736Z,2.80
2022-12-06T07:34:04.458Z,2.80
2022-12-06T07:36:31.869Z,2.70
2022-12-06T07:38:59.219Z,2.70
2022-12-06T07:41:45.686Z,2.70
2022-12-06T07:44:31.848Z,2.70
2022-12-06T07:46:58.742Z,2.70
2022-12-06T07:49:25.446Z,2.70
2022-12-06T07:51:53.253Z,2.60
2022-12-06T07:54:19.888Z,2.60
2022-12-06T07:56:46.568Z,2.60
2022-12-06T07:59:13.411Z,2.50
2022-12-06T08:01:40.167Z,2.40
2022-12-06T08:04:06.956Z,2.40
2022-12-06T08:06:33.735Z,2.40
2022-12-06T08:09:00.396Z,2.40
2022-12-06T08:11:27.038Z,2.40
2022-12-06T08:13:53.615Z,2.40
2022-12-06T08:16:20.368Z,2.40
2022-12-06T08:18:47.058Z,2.40
2022-12-06T08:21:13.721Z,2.40
2022-12-06T08:23:40.344Z,2.40
2022-12-06T08:26:08.109Z,2.40
2022-12-06T08:28:35.397Z,2.50
2022-12-06T08:31:13.137Z,2.50
2022-12-06T08:33:39.818Z,2.60
2022-12-06T08:36:08.895Z,2.60
2022-12-06T08:38:36.674Z,2.60
2022-12-06T08:41:03.474Z,2.70
2022-12-06T08:43:31.041Z,2.70
2022-12-06T08:45:58.031Z,2.80
2022-12-06T08:48:24.777Z,2.80
2022-12-06T08:50:51.479Z,2.90
2022-12-06T08:53:18.125Z,2.90
2022-12-06T08:55:57.312Z,3.00
2022-12-06T08:58:27.196Z,3.00
2022-12-06T09:00:53.854Z,3.10
2022-12-06T09:03:20.495Z,3.10
2022-12-06T09:05:47.225Z,3.20
2022-12-06T09:08:13.930Z,3.30
2022-12-06T09:10:40.665Z,3.30
2022-12-06T09:13:07.342Z,3.40
2022-12-06T09:15:34.010Z,3.40
2022-12-06T09:18:00.874Z,3.50
2022-12-06T09:20:27.597Z,3.50
2022-12-06T09:22:54.201Z,3.60
2022-12-06T09:25:20.924Z,3.60
2022-12-06T09:27:49.079Z,3.70
2022-12-06T09:30:15.771Z,3.70
2022-12-06T09:32:42.506Z,3.80
2022-12-06T09:35:14.905Z,3.80
2022-12-06T09:37:44.132Z,3.80
2022-12-06T09:40:19.702Z,3.80
2022-12-06T09:42:54.509Z,3.90
2022-12-06T09:45:33.402Z,3.90
2022-12-06T09:48:03.176Z,3.90
2022-12-06T09:50:35.983Z,3.90
2022-12-06T09:53:05.628Z,4.00
2022-12-06T09:55:42.790Z,4.00
2022-12-06T09:58:21.503Z,4.00
2022-12-06T10:00:51.825Z,4.00
2022-12-06T10:03:24.124Z,4.10
2022-12-06T10:06:00.957Z,4.10
2022-12-06T10:08:27.719Z,4.10
2022-12-06T10:11:13.289Z,4.10
2022-12-06T10:13:46.100Z,4.20
2022-12-06T10:16:15.745Z,4.20
2022-12-06T10:18:42.448Z,4.30
2022-12-06T10:21:26.146Z,4.30
2022-12-06T10:24:16.208Z,4.40
2022-12-06T10:26:53.784Z,4.50
2022-12-06T10:29:28.815Z,4.60
2022-12-06T10:31:57.981Z,4.70
2022-12-06T10:34:27.841Z,4.80
2022-12-06T10:37:02.631Z,4.90
2022-12-06T10:39:38.643Z,5.00
2022-12-06T10:42:11.719Z,4.90
2022-12-06T10:44:44.651Z,4.90
2022-12-06T10:47:14.603Z,4.90
2022-12-06T10:49:49.055Z,4.90
2022-12-06T10:52:31.095Z,4.90
2022-12-06T10:55:12.718Z,4.90
2022-12-06T10:57:54.754Z,5.00
2022-12-06T11:00:23.464Z,5.10
2022-12-06T11:03:11.452Z,5.00
2022-12-06T11:05:42.407Z,5.00
2022-12-06T11:08:24.353Z,4.90
2022-12-06T11:10:52.530Z,4.90
2022-12-06T11:13:25.553Z,4.90
2022-12-06T11:15:58.394Z,4.90
2022-12-06T11:18:27.474Z,4.90
2022-12-06T11:20:58.777Z,5.00
2022-12-06T11:23:45.714Z,5.00
2022-12-06T11:26:20.833Z,5.00
2022-12-06T11:29:05.363Z,5.10
2022-12-06T11:31:34.293Z,5.20
2022-12-06T11:34:05.369Z,5.20
2022-12-06T11:36:35.447Z,5.20
2022-12-06T11:39:02.333Z,5.20
2022-12-06T11:41:30.955Z,5.20
2022-12-06T11:43:57.743Z,5.30
2022-12-06T11:46:24.977Z,5.30
2022-12-06T11:48:52.255Z,5.30
2022-12-06T11:51:20.356Z,5.40
2022-12-06T11:53:53.149Z,5.40
2022-12-06T11:56:22.923Z,5.40
2022-12-06T11:59:08.426Z,5.60
2022-12-06T12:01:42.756Z,5.70
2022-12-06T12:04:28.437Z,5.80
2022-12-06T12:07:00.083Z,5.90
2022-12-06T12:09:29.328Z,5.90
2022-12-06T12:12:07.307Z,5.90
2022-12-06T12:14:37.108Z,6.00
2022-12-06T12:17:04.577Z,6.10
2022-12-06T12:19:31.797Z,6.10
2022-12-06T12:21:59.574Z,6.10
2022-12-06T12:25:03.145Z,6.20
2022-12-06T12:27:31.542Z,6.10
2022-12-06T12:30:16.968Z,6.20
2022-12-06T12:32:44.233Z,6.20
2022-12-06T12:35:31.128Z,6.20
2022-12-06T12:37:59.693Z,6.20
2022-12-06T12:40:35.206Z,6.20
2022-12-06T12:43:15.699Z,6.20
2022-12-06T12:46:02.682Z,6.20
2022-12-06T12:48:32.368Z,6.20
2022-12-06T12:51:00.226Z,6.20
2022-12-06T12:53:31.432Z,6.20
2022-12-06T12:56:09.886Z,6.20
2022-12-06T12:58:36.864Z,6.20
2022-12-06T13:01:26.583Z,6.20
2022-12-06T13:03:59.390Z,6.10
2022-12-06T13:06:38.278Z,6.10
2022-12-06T13:09:05.933Z,6.10
2022-12-06T13:11:38.815Z,6.00
2022-12-06T13:14:05.638Z,6.00
2022-12-06T13:16:34.106Z,5.90
2022-12-06T13:19:01.546Z,5.90
2022-12-06T13:21:40.434Z,5.90
2022-12-06T13:24:10.158Z,5.90
2022-12-06T13:26:39.273Z,5.90
2022-12-06T13:29:32.218Z,5.80
2022-12-06T13:32:00.563Z,5.90
2022-12-06T13:34:37.373Z,5.80
2022-12-06T13:37:24.532Z,5.80
2022-12-06T13:39:51.284Z,5.80
2022-12-06T13:42:38.158Z,5.80
2022-12-06T13:45:06.302Z,5.80
2022-12-06T13:47:32.899Z,5.80
2022-12-06T13:50:08.782Z,5.70
2022-12-06T13:52:47.672Z,5.70
2022-12-06T13:55:26.692Z,5.80
2022-12-06T13:58:16.431Z,5.70
2022-12-06T14:00:43.077Z,5.70
2022-12-06T14:03:19.056Z,5.70
2022-12-06T14:08:34.858Z,5.60
2022-12-06T14:11:12.643Z,5.60
2022-12-06T14:13:40.042Z,5.60
2022-12-06T14:16:08.914Z,5.60
2022-12-06T14:18:38.073Z,5.50
2022-12-06T14:21:04.758Z,5.50
2022-12-06T14:23:32.751Z,5.40
2022-12-06T14:26:18.100Z,5.40
2022-12-06T14:28:44.968Z,5.40
2022-12-06T14:31:39.307Z,5.40
2022-12-06T14:34:06.085Z,5.40
2022-12-06T14:36:38.760Z,5.40
2022-12-06T14:39:15.698Z,5.30
2022-12-06T14:42:08.859Z,5.30
2022-12-06T14:44:35.565Z,5.30
2022-12-06T14:47:02.333Z,5.30
2022-12-06T14:49:47.846Z,5.30
2022-12-06T15:06:10.763Z,5.20
2022-12-06T15:08:38.454Z,5.10
2022-12-06T15:11:40.191Z,5.10
2022-12-06T15:14:12.621Z,5.10
2022-12-06T15:16:42.530Z,5.10
2022-12-06T15:19:16.696Z,5.00
2022-12-06T15:21:43.400Z,5.00
2022-12-06T15:24:16.150Z,5.00
2022-12-06T15:26:42.876Z,5.00
2022-12-06T15:29:09.482Z,4.90
2022-12-06T15:31:36.521Z,4.90
2022-12-06T15:34:12.691Z,4.90
2022-12-06T15:36:39.517Z,4.90
2022-12-06T15:39:07.246Z,4.90
2022-12-06T15:41:34.419Z,4.90
2022-12-06T15:44:01.775Z,4.90
2022-12-06T15:46:29.209Z,4.80
2022-12-06T15:48:56.291Z,4.80
2022-12-06T15:51:27.548Z,4.80
2022-12-06T15:53:57.127Z,4.70
2022-12-06T15:56:25.788Z,4.80
2022-12-06T15:58:52.511Z,4.70
2022-12-06T16:01:19.772Z,4.70
2022-12-06T16:03:47.468Z,4.70
2022-12-06T16:06:15.728Z,4.70
2022-12-06T16:08:42.780Z,4.70
2022-12-06T16:11:12.574Z,4.70
2022-12-06T16:13:39.558Z,4.70
2022-12-06T16:16:06.606Z,4.70
2022-12-06T16:18:33.313Z,4.70
2022-12-06T16:20:59.904Z,4.70
2022-12-06T16:24:12.527Z,4.60
2022-12-06T16:26:36.682Z,4.60
2022-12-06T16:29:06.248Z,4.60
2022-12-06T16:31:38.326Z,4.60
2022-12-06T16:34:05.507Z,4.60
2022-12-06T16:36:32.387Z,4.60
2022-12-06T16:38:59.959Z,4.60
2022-12-06T16:41:28.572Z,4.60
2022-12-06T16:43:55.959Z,4.60
2022-12-06T16:46:33.107Z,4.60
2022-12-06T16:49:37.263Z,4.60
2022-12-06T16:51:52.845Z,4.60
2022-12-06T16:54:19.673Z,4.60
2022-12-06T16:56:46.356Z,4.60
2022-12-06T16:59:17.167Z,4.50
2022-12-06T17:01:48.465Z,4.50
2022-12-06T17:04:15.262Z,4.50
2022-12-06T17:06:42.039Z,4.50
2022-12-06T17:09:10.130Z,4.50
2022-12-06T17:11:55.520Z,4.40
2022-12-06T17:14:25.121Z,4.40
2022-12-06T17:16:54.479Z,4.30
2022-12-06T17:19:23.031Z,4.30
2022-12-06T17:21:50.464Z,4.30
2022-12-06T17:24:17.856Z,4.40
2022-12-06T17:26:44.533Z,4.40
2022-12-06T17:29:11.175Z,4.30
2022-12-06T17:31:38.195Z,4.40
2022-12-06T17:34:05.708Z,4.40
2022-12-06T17:36:32.429Z,4.40
2022-12-06T17:39:01.235Z,4.40
2022-12-06T17:41:51.780Z,4.30
2022-12-06T17:44:19.199Z,4.30
2022-12-06T17:46:46.275Z,4.30
2022-12-06T17:49:14.352Z,4.30
2022-12-06T17:51:42.110Z,4.30
2022-12-06T17:54:09.534Z,4.30
2022-12-06T17:56:40.934Z,4.30
2022-12-06T17:59:12.124Z,4.20
2022-12-06T18:02:12.809Z,4.20
2022-12-06T18:04:29.437Z,4.10
2022-12-06T18:06:56.529Z,4.10
2022-12-06T18:09:23.596Z,4.10
2022-12-06T18:11:51.175Z,4.20
2022-12-06T18:14:17.980Z,4.20
2022-12-06T18:16:48.459Z,4.20
2022-12-06T18:19:16.473Z,4.10
2022-12-06T18:21:43.404Z,4.10
2022-12-06T18:24:32.112Z,4.10
2022-12-06T18:26:58.095Z,4.10
2022-12-06T18:29:24.808Z,4.10
2022-12-06T18:31:52.045Z,4.10
2022-12-06T18:34:19.015Z,4.20
2022-12-06T18:36:57.190Z,4.20
2022-12-06T18:39:27.858Z,4.20
2022-12-06T18:41:54.755Z,4.20
2022-12-06T18:44:22.196Z,4.20
2022-12-06T18:46:49.068Z,4.20
2022-12-06T18:49:15.917Z,4.20
2022-12-06T18:51:42.609Z,4.20
2022-12-06T18:54:10.881Z,4.10
2022-12-06T18:56:37.671Z,4.10
2022-12-06T18:59:05.618Z,4.10
2022-12-06T19:01:33.607Z,4.10
2022-12-06T19:04:02.995Z,4.10
2022-12-06T19:06:31.189Z,4.10
2022-12-06T19:09:00.138Z,4.10
2022-12-06T19:11:26.822Z,4.10
2022-12-06T19:13:54.265Z,4.10
2022-12-06T19:16:38.172Z,4.00
2022-12-06T19:19:07.208Z,4.00
2022-12-06T19:21:36.861Z,4.10
2022-12-06T19:24:04.136Z,4.10
2022-12-06T19:26:31.974Z,4.10
2022-12-06T19:28:59.778Z,4.10
2022-12-06T19:31:26.570Z,4.00
2022-12-06T19:33:53.204Z,4.00
2022-12-06T19:36:24.087Z,4.00
2022-12-06T19:39:01.302Z,4.00
2022-12-06T19:41:28.106Z,4.00
2022-12-06T19:44:13.339Z,4.00
2022-12-06T19:46:42.640Z,4.00
2022-12-06T19:49:10.314Z,3.90
2022-12-06T19:51:47.281Z,3.90
2022-12-06T19:54:14.892Z,3.90
2022-12-06T19:56:41.579Z,3.80
2022-12-06T19:59:11.834Z,3.80
2022-12-06T20:01:43.415Z,3.80
2022-12-06T20:04:17.678Z,3.80
2022-12-06T20:06:44.534Z,3.80
2022-12-06T20:09:11.516Z,3.80
2022-12-06T20:11:57.601Z,3.80
2022-12-06T20:14:24.298Z,3.80
2022-12-06T20:16:51.077Z,3.70
2022-12-06T20:19:18.013Z,3.70
2022-12-06T20:21:44.981Z,3.70
2022-12-06T20:24:16.465Z,3.70
2022-12-06T20:26:43.234Z,3.80
2022-12-06T20:29:10.438Z,3.80
2022-12-06T20:31:37.192Z,3.80
2022-12-06T20:34:08.959Z,3.80
2022-12-06T20:36:38.209Z,3.80
2022-12-06T20:39:04.923Z,3.80
2022-12-06T20:41:35.889Z,3.90
2022-12-06T20:44:02.676Z,3.90
2022-12-06T20:46:30.321Z,3.80
2022-12-06T20:49:00.255Z,3.80
2022-12-06T20:51:27.462Z,3.80
2022-12-06T20:53:57.404Z,3.80
2022-12-06T20:56:25.327Z,3.80
2022-12-06T20:58:53.603Z,3.80
2022-12-06T21:01:22.822Z,3.70
2022-12-06T21:03:52.518Z,3.60
2022-12-06T21:06:20.367Z,3.60
2022-12-06T21:08:47.279Z,3.70
2022-12-06T21:11:22.735Z,3.80
2022-12-06T21:13:51.353Z,3.80
2022-12-06T21:16:21.040Z,3.80
2022-12-06T21:18:49.385Z,3.80
2022-12-06T21:21:23.544Z,3.80
2022-12-06T21:23:50.406Z,3.80
2022-12-06T21:26:17.516Z,3.80
2022-12-06T21:28:46.390Z,3.80
2022-12-06T21:31:15.934Z,3.80
2022-12-06T21:33:42.704Z,3.80
2022-12-06T21:36:10.475Z,3.80
2022-12-06T21:38:37.223Z,3.80
2022-12-06T21:41:05.232Z,3.90
2022-12-06T21:43:31.994Z,3.90
2022-12-06T21:46:02.243Z,3.90
2022-12-06T21:48:29.012Z,3.90
2022-12-06T21:51:04.935Z,3.90
2022-12-06T21:53:36.871Z,3.90
2022-12-06T21:56:07.632Z,4.00
2022-12-06T21:58:35.192Z,4.00
2022-12-06T22:01:08.404Z,3.90
2022-12-06T22:04:12.932Z,3.90
2022-12-06T22:06:39.625Z,3.90
2022-12-06T22:09:06.513Z,4.00
2022-12-06T22:11:33.970Z,4.00
2022-12-06T22:14:01.102Z,4.00
2022-12-06T22:16:28.297Z,4.00
2022-12-06T22:18:55.453Z,3.90
2022-12-06T22:21:27.441Z,4.00
2022-12-06T22:23:55.512Z,4.00
2022-12-06T22:26:22.754Z,4.10
2022-12-06T22:28:49.556Z,4.10
2022-12-06T22:31:21.144Z,4.10
2022-12-06T22:33:48.464Z,4.10
2022-12-06T22:36:15.444Z,4.20
2022-12-06T22:38:43.163Z,4.20
2022-12-06T22:41:12.317Z,4.20
2022-12-06T22:43:39.113Z,4.20
2022-12-06T22:46:07.160Z,4.10
2022-12-06T22:48:33.905Z,4.10
2022-12-06T22:51:16.973Z,4.20
2022-12-06T22:53:44.869Z,4.20
2022-12-06T22:56:11.713Z,4.20
2022-12-06T22:58:38.377Z,4.20
2022-12-06T23:01:25.226Z,4.20
2022-12-06T23:03:52.829Z,4.20
2022-12-06T23:06:21.060Z,4.10
2022-12-06T23:08:48.223Z,4.10
2022-12-06T23:11:21.011Z,4.10
2022-12-06T23:13:47.902Z,4.10
2022-12-06T23:16:16.245Z,4.20
2022-12-06T23:18:43.319Z,4.20
2022-12-06T23:21:18.090Z,4.20
2022-12-06T23:23:48.979Z,4.20
2022-12-06T23:26:19.822Z,4.20
2022-12-06T23:28:46.697Z,4.30
2022-12-06T23:31:14.835Z,4.30
2022-12-06T23:33:42.147Z,4.20
2022-12-06T23:36:10.477Z,4.20
2022-12-06T23:38:37.389Z,4.20
2022-12-06T23:41:05.308Z,4.20
2022-12-06T23:43:32.334Z,4.20
2022-12-06T23:46:04.366Z,4.20
2022-12-06T23:48:33.883Z,4.20
2022-12-06T23:51:05.473Z,4.20
2022-12-06T23:53:32.699Z,4.20
2022-12-06T23:56:10.552Z,4.30
2022-12-06T23:58:37.266Z,4.30
